sensor_id;sensor_type;location;lat;lon;timestamp;pressure;altitude;pressure_sealevel;temperature
24740;BMP280;45234;48.148;17.128;2023-01-24T00:00:54;101324.72;;;3.27
24740;BMP280;45234;48.148;17.128;2023-01-24T00:03:21;101330.66;;;3.27
24740;BMP280;45234;48.148;17.128;2023-01-24T00:05:48;101333.09;;;3.29
24740;BMP280;45234;48.148;17.128;2023-01-24T00:08:18;101325.53;;;3.27
24740;BMP280;45234;48.148;17.128;2023-01-24T00:11:02;101328.44;;;3.23
24740;BMP280;45234;48.148;17.128;2023-01-24T00:13:30;101327.38;;;3.25
24740;BMP280;45234;48.148;17.128;2023-01-24T00:16:04;101321.91;;;3.19
24740;BMP280;45234;48.148;17.128;2023-01-24T00:18:31;101327.22;;;3.16
24740;BMP280;45234;48.148;17.128;2023-01-24T00:21:09;101329.91;;;3.14
24740;BMP280;45234;48.148;17.128;2023-01-24T00:23:37;101330.50;;;3.18
24740;BMP280;45234;48.148;17.128;2023-01-24T00:26:04;101326.31;;;3.17
24740;BMP280;45234;48.148;17.128;2023-01-24T00:28:31;101325.47;;;3.16
24740;BMP280;45234;48.148;17.128;2023-01-24T00:30:58;101327.34;;;3.14
24740;BMP280;45234;48.148;17.128;2023-01-24T00:33:26;101325.81;;;3.12
24740;BMP280;45234;48.148;17.128;2023-01-24T00:35:54;101325.09;;;3.10
24740;BMP280;45234;48.148;17.128;2023-01-24T00:38:21;101323.53;;;3.07
24740;BMP280;45234;48.148;17.128;2023-01-24T00:40:49;101331.16;;;3.09
24740;BMP280;45234;48.148;17.128;2023-01-24T00:43:17;101326.84;;;3.09
24740;BMP280;45234;48.148;17.128;2023-01-24T00:45:44;101332.56;;;3.13
24740;BMP280;45234;48.148;17.128;2023-01-24T00:48:12;101334.09;;;3.15
24740;BMP280;45234;48.148;17.128;2023-01-24T00:50:40;101338.81;;;3.21
24740;BMP280;45234;48.148;17.128;2023-01-24T00:53:07;101336.69;;;3.26
24740;BMP280;45234;48.148;17.128;2023-01-24T00:55:39;101344.69;;;3.35
24740;BMP280;45234;48.148;17.128;2023-01-24T00:58:06;101339.97;;;3.41
24740;BMP280;45234;48.148;17.128;2023-01-24T01:00:33;101336.13;;;3.47
24740;BMP280;45234;48.148;17.128;2023-01-24T01:03:01;101343.56;;;3.50
24740;BMP280;45234;48.148;17.128;2023-01-24T01:05:27;101342.47;;;3.54
24740;BMP280;45234;48.148;17.128;2023-01-24T01:07:54;101349.00;;;3.58
24740;BMP280;45234;48.148;17.128;2023-01-24T01:10:21;101336.88;;;3.60
24740;BMP280;45234;48.148;17.128;2023-01-24T01:12:49;101345.09;;;3.65
24740;BMP280;45234;48.148;17.128;2023-01-24T01:15:16;101334.81;;;3.65
24740;BMP280;45234;48.148;17.128;2023-01-24T01:17:43;101338.22;;;3.66
24740;BMP280;45234;48.148;17.128;2023-01-24T01:20:10;101337.63;;;3.62
24740;BMP280;45234;48.148;17.128;2023-01-24T01:22:37;101347.94;;;3.61
24740;BMP280;45234;48.148;17.128;2023-01-24T01:25:04;101349.00;;;3.58
24740;BMP280;45234;48.148;17.128;2023-01-24T01:27:32;101350.16;;;3.54
24740;BMP280;45234;48.148;17.128;2023-01-24T01:30:00;101345.13;;;3.52
24740;BMP280;45234;48.148;17.128;2023-01-24T01:32:29;101347.88;;;3.49
24740;BMP280;45234;48.148;17.128;2023-01-24T01:34:56;101360.97;;;3.46
24740;BMP280;45234;48.148;17.128;2023-01-24T01:37:22;101362.00;;;3.44
24740;BMP280;45234;48.148;17.128;2023-01-24T01:39:51;101356.88;;;3.44
24740;BMP280;45234;48.148;17.128;2023-01-24T01:42:17;101355.13;;;3.44
24740;BMP280;45234;48.148;17.128;2023-01-24T01:44:46;101360.13;;;3.46
24740;BMP280;45234;48.148;17.128;2023-01-24T01:47:34;101360.13;;;3.46
24740;BMP280;45234;48.148;17.128;2023-01-24T01:50:07;101376.56;;;3.43
24740;BMP280;45234;48.148;17.128;2023-01-24T01:52:41;101372.38;;;3.42
24740;BMP280;45234;48.148;17.128;2023-01-24T01:55:16;101376.78;;;3.40
24740;BMP280;45234;48.148;17.128;2023-01-24T01:57:44;101374.00;;;3.43
24740;BMP280;45234;48.148;17.128;2023-01-24T02:00:17;101380.06;;;3.42
24740;BMP280;45234;48.148;17.128;2023-01-24T02:02:50;101380.06;;;3.42
24740;BMP280;45234;48.148;17.128;2023-01-24T02:05:21;101380.16;;;3.41
24740;BMP280;45234;48.148;17.128;2023-01-24T02:07:55;101378.50;;;3.40
24740;BMP280;45234;48.148;17.128;2023-01-24T02:10:25;101382.81;;;3.39
24740;BMP280;45234;48.148;17.128;2023-01-24T02:13:13;101382.09;;;3.37
24740;BMP280;45234;48.148;17.128;2023-01-24T02:15:40;101381.06;;;3.40
24740;BMP280;45234;48.148;17.128;2023-01-24T02:18:26;101380.34;;;3.38
24740;BMP280;45234;48.148;17.128;2023-01-24T02:20:53;101382.72;;;3.41
24740;BMP280;45234;48.148;17.128;2023-01-24T02:26:25;101378.50;;;3.40
24740;BMP280;45234;48.148;17.128;2023-01-24T02:31:29;101378.34;;;3.54
24740;BMP280;45234;48.148;17.128;2023-01-24T02:33:56;101388.16;;;3.60
24740;BMP280;45234;48.148;17.128;2023-01-24T02:36:32;101394.91;;;3.61
24740;BMP280;45234;48.148;17.128;2023-01-24T02:39:05;101390.41;;;3.65
24740;BMP280;45234;48.148;17.128;2023-01-24T02:41:47;101392.75;;;3.68
24740;BMP280;45234;48.148;17.128;2023-01-24T02:44:32;101395.91;;;3.71
24740;BMP280;45234;48.148;17.128;2023-01-24T02:47:01;101382.31;;;3.82
24740;BMP280;45234;48.148;17.128;2023-01-24T02:49:28;101389.47;;;3.90
24740;BMP280;45234;48.148;17.128;2023-01-24T02:51:55;101396.75;;;3.96
24740;BMP280;45234;48.148;17.128;2023-01-24T02:54:42;101395.56;;;4.00
24740;BMP280;45234;48.148;17.128;2023-01-24T02:57:09;101388.38;;;4.05
24740;BMP280;45234;48.148;17.128;2023-01-24T02:59:55;101388.25;;;4.06
24740;BMP280;45234;48.148;17.128;2023-01-24T03:02:22;101393.97;;;4.10
24740;BMP280;45234;48.148;17.128;2023-01-24T03:04:49;101401.25;;;4.16
24740;BMP280;45234;48.148;17.128;2023-01-24T03:07:17;101400.97;;;4.19
24740;BMP280;45234;48.148;17.128;2023-01-24T03:09:50;101404.94;;;4.23
24740;BMP280;45234;48.148;17.128;2023-01-24T03:12:20;101398.69;;;4.27
24740;BMP280;45234;48.148;17.128;2023-01-24T03:15:06;101402.66;;;4.31
24740;BMP280;45234;48.148;17.128;2023-01-24T03:17:51;101406.63;;;4.35
24740;BMP280;45234;48.148;17.128;2023-01-24T03:20:37;101402.34;;;4.36
24740;BMP280;45234;48.148;17.128;2023-01-24T03:23:22;101405.00;;;4.34
24740;BMP280;45234;48.148;17.128;2023-01-24T03:26:08;101408.72;;;4.30
24740;BMP280;45234;48.148;17.128;2023-01-24T03:28:53;101403.59;;;4.30
24740;BMP280;45234;48.148;17.128;2023-01-24T03:31:39;101403.59;;;4.30
24740;BMP280;45234;48.148;17.128;2023-01-24T03:34:27;101407.91;;;4.30
24740;BMP280;45234;48.148;17.128;2023-01-24T03:37:15;101411.19;;;4.32
24740;BMP280;45234;48.148;17.128;2023-01-24T03:39:42;101409.53;;;4.31
24740;BMP280;45234;48.148;17.128;2023-01-24T03:42:26;101408.97;;;4.27
24740;BMP280;45234;48.148;17.128;2023-01-24T03:44:54;101415.84;;;4.27
24740;BMP280;45234;48.148;17.128;2023-01-24T03:47:21;101419.34;;;4.26
24740;BMP280;45234;48.148;17.128;2023-01-24T03:49:48;101415.44;;;4.20
24740;BMP280;45234;48.148;17.128;2023-01-24T03:52:33;101417.47;;;4.16
24740;BMP280;45234;48.148;17.128;2023-01-24T03:55:04;101421.97;;;4.13
24740;BMP280;45234;48.148;17.128;2023-01-24T03:57:31;101420.34;;;4.12
24740;BMP280;45234;48.148;17.128;2023-01-24T04:00:02;101415.09;;;4.13
24740;BMP280;45234;48.148;17.128;2023-01-24T04:02:31;101414.50;;;4.10
24740;BMP280;45234;48.148;17.128;2023-01-24T04:04:58;101412.16;;;4.07
24740;BMP280;45234;48.148;17.128;2023-01-24T04:07:42;101406.53;;;4.02
24740;BMP280;45234;48.148;17.128;2023-01-24T04:10:10;101402.44;;;3.99
24740;BMP280;45234;48.148;17.128;2023-01-24T04:12:45;101402.44;;;3.99
24740;BMP280;45234;48.148;17.128;2023-01-24T04:15:24;101418.38;;;3.92
24740;BMP280;45234;48.148;17.128;2023-01-24T04:18:01;101416.88;;;3.89
24740;BMP280;45234;48.148;17.128;2023-01-24T04:20:30;101422.44;;;3.83
24740;BMP280;45234;48.148;17.128;2023-01-24T04:23:01;101424.38;;;3.79
24740;BMP280;45234;48.148;17.128;2023-01-24T04:25:29;101419.72;;;3.73
24740;BMP280;45234;48.148;17.128;2023-01-24T04:27:57;101418.28;;;3.69
24740;BMP280;45234;48.148;17.128;2023-01-24T04:30:27;101421.28;;;3.63
24740;BMP280;45234;48.148;17.128;2023-01-24T04:32:56;101415.44;;;3.61
24740;BMP280;45234;48.148;17.128;2023-01-24T04:35:27;101420.06;;;3.56
24740;BMP280;45234;48.148;17.128;2023-01-24T04:38:02;101422.84;;;3.53
24740;BMP280;45234;48.148;17.128;2023-01-24T04:41:01;101422.38;;;3.48
24740;BMP280;45234;48.148;17.128;2023-01-24T04:43:35;101431.56;;;3.50
24740;BMP280;45234;48.148;17.128;2023-01-24T04:46:02;101432.47;;;3.49
24740;BMP280;45234;48.148;17.128;2023-01-24T04:48:52;101430.88;;;3.48
24740;BMP280;45234;48.148;17.128;2023-01-24T04:51:19;101437.53;;;3.51
24740;BMP280;45234;48.148;17.128;2023-01-24T04:53:47;101439.16;;;3.52
24740;BMP280;45234;48.148;17.128;2023-01-24T04:56:18;101432.06;;;3.55
24740;BMP280;45234;48.148;17.128;2023-01-24T04:58:45;101442.94;;;3.59
24740;BMP280;45234;48.148;17.128;2023-01-24T05:01:13;101450.44;;;3.62
24740;BMP280;45234;48.148;17.128;2023-01-24T05:03:52;101438.22;;;3.66
24740;BMP280;45234;48.148;17.128;2023-01-24T05:06:26;101441.38;;;3.69
24740;BMP280;45234;48.148;17.128;2023-01-24T05:08:54;101446.75;;;3.77
24740;BMP280;45234;48.148;17.128;2023-01-24T05:11:26;101447.47;;;3.79
24740;BMP280;45234;48.148;17.128;2023-01-24T05:13:58;101454.03;;;3.83
24740;BMP280;45234;48.148;17.128;2023-01-24T05:16:25;101453.81;;;3.86
24740;BMP280;45234;48.148;17.128;2023-01-24T05:18:52;101456.97;;;3.90
24740;BMP280;45234;48.148;17.128;2023-01-24T05:21:20;101458.44;;;3.94
24740;BMP280;45234;48.148;17.128;2023-01-24T05:23:51;101462.94;;;3.91
24740;BMP280;45234;48.148;17.128;2023-01-24T05:26:21;101461.88;;;3.93
24740;BMP280;45234;48.148;17.128;2023-01-24T05:28:51;101469.25;;;3.98
24740;BMP280;45234;48.148;17.128;2023-01-24T05:31:18;101466.00;;;3.96
24740;BMP280;45234;48.148;17.128;2023-01-24T05:33:46;101467.25;;;3.90
24740;BMP280;45234;48.148;17.128;2023-01-24T05:36:15;101471.34;;;3.93
24740;BMP280;45234;48.148;17.128;2023-01-24T05:38:45;101467.88;;;3.94
24740;BMP280;45234;48.148;17.128;2023-01-24T05:41:15;101474.63;;;3.95
24740;BMP280;45234;48.148;17.128;2023-01-24T05:43:43;101478.59;;;3.99
24740;BMP280;45234;48.148;17.128;2023-01-24T05:46:13;101476.03;;;3.99
24740;BMP280;45234;48.148;17.128;2023-01-24T05:48:48;101471.59;;;4.01
24740;BMP280;45234;48.148;17.128;2023-01-24T05:51:18;101476.84;;;3.99
24740;BMP280;45234;48.148;17.128;2023-01-24T05:53:47;101476.28;;;3.96
24740;BMP280;45234;48.148;17.128;2023-01-24T05:56:27;101474.97;;;4.01
24740;BMP280;45234;48.148;17.128;2023-01-24T05:58:55;101481.56;;;4.05
24740;BMP280;45234;48.148;17.128;2023-01-24T06:01:23;101482.84;;;4.11
24740;BMP280;45234;48.148;17.128;2023-01-24T06:03:53;101481.09;;;4.11
24740;BMP280;45234;48.148;17.128;2023-01-24T06:06:21;101481.09;;;4.11
24740;BMP280;45234;48.148;17.128;2023-01-24T06:08:49;101478.44;;;4.13
24740;BMP280;45234;48.148;17.128;2023-01-24T06:11:21;101492.19;;;4.12
24740;BMP280;45234;48.148;17.128;2023-01-24T06:13:57;101497.94;;;4.15
24740;BMP280;45234;48.148;17.128;2023-01-24T06:16:26;101496.88;;;4.18
24740;BMP280;45234;48.148;17.128;2023-01-24T06:18:54;101502.72;;;4.20
24740;BMP280;45234;48.148;17.128;2023-01-24T06:21:45;101507.13;;;4.18
24740;BMP280;45234;48.148;17.128;2023-01-24T06:24:25;101502.94;;;4.17
24740;BMP280;45234;48.148;17.128;2023-01-24T06:27:13;101514.50;;;4.23
24740;BMP280;45234;48.148;17.128;2023-01-24T06:29:40;101512.63;;;4.25
24740;BMP280;45234;48.148;17.128;2023-01-24T06:38:22;101530.06;;;4.32
24740;BMP280;45234;48.148;17.128;2023-01-24T06:40:57;101537.47;;;4.37
24740;BMP280;45234;48.148;17.128;2023-01-24T06:43:26;101539.44;;;4.44
24740;BMP280;45234;48.148;17.128;2023-01-24T06:45:53;101545.19;;;4.48
24740;BMP280;45234;48.148;17.128;2023-01-24T06:48:21;101549.06;;;4.54
24740;BMP280;45234;48.148;17.128;2023-01-24T06:50:48;101553.03;;;4.58
24740;BMP280;45234;48.148;17.128;2023-01-24T06:53:15;101553.03;;;4.58
24740;BMP280;45234;48.148;17.128;2023-01-24T06:55:45;101552.34;;;4.56
24740;BMP280;45234;48.148;17.128;2023-01-24T06:58:12;101553.16;;;4.56
24740;BMP280;45234;48.148;17.128;2023-01-24T07:00:39;101555.03;;;4.54
24740;BMP280;45234;48.148;17.128;2023-01-24T07:03:07;101564.94;;;4.47
24740;BMP280;45234;48.148;17.128;2023-01-24T07:05:36;101563.06;;;4.49
24740;BMP280;45234;48.148;17.128;2023-01-24T07:08:05;101570.44;;;4.54
24740;BMP280;45234;48.148;17.128;2023-01-24T07:10:33;101569.38;;;4.57
24740;BMP280;45234;48.148;17.128;2023-01-24T07:13:00;101560.28;;;4.64
24740;BMP280;45234;48.148;17.128;2023-01-24T07:15:27;101563.38;;;4.69
24740;BMP280;45234;48.148;17.128;2023-01-24T07:17:54;101558.22;;;4.69
24740;BMP280;45234;48.148;17.128;2023-01-24T07:20:21;101566.25;;;4.64
24740;BMP280;45234;48.148;17.128;2023-01-24T07:22:48;101577.69;;;4.60
24740;BMP280;45234;48.148;17.128;2023-01-24T07:25:17;101576.59;;;4.52
24740;BMP280;45234;48.148;17.128;2023-01-24T07:27:47;101578.69;;;4.46
24740;BMP280;45234;48.148;17.128;2023-01-24T07:30:23;101578.06;;;4.43
24740;BMP280;45234;48.148;17.128;2023-01-24T07:32:49;101581.56;;;4.42
24740;BMP280;45234;48.148;17.128;2023-01-24T07:35:16;101582.59;;;4.39
24740;BMP280;45234;48.148;17.128;2023-01-24T07:37:43;101579.09;;;4.40
24740;BMP280;45234;48.148;17.128;2023-01-24T07:40:10;101587.75;;;4.39
24740;BMP280;45234;48.148;17.128;2023-01-24T07:42:37;101588.56;;;4.40
24740;BMP280;45234;48.148;17.128;2023-01-24T07:45:05;101592.06;;;4.39
24740;BMP280;45234;48.148;17.128;2023-01-24T07:47:32;101592.78;;;4.41
24740;BMP280;45234;48.148;17.128;2023-01-24T07:49:58;101597.56;;;4.45
24740;BMP280;45234;48.148;17.128;2023-01-24T07:52:25;101597.25;;;4.50
24740;BMP280;45234;48.148;17.128;2023-01-24T07:54:52;101601.13;;;4.56
24740;BMP280;45234;48.148;17.128;2023-01-24T07:57:19;101606.28;;;4.56
24740;BMP280;45234;48.148;17.128;2023-01-24T07:59:46;101608.63;;;4.59
24740;BMP280;45234;48.148;17.128;2023-01-24T08:02:13;101609.22;;;4.62
24740;BMP280;45234;48.148;17.128;2023-01-24T08:04:40;101611.44;;;4.67
24740;BMP280;45234;48.148;17.128;2023-01-24T08:07:07;101614.75;;;4.69
24740;BMP280;45234;48.148;17.128;2023-01-24T08:09:44;101609.94;;;4.75
24740;BMP280;45234;48.148;17.128;2023-01-24T08:12:11;101618.97;;;4.81
24740;BMP280;45234;48.148;17.128;2023-01-24T08:14:39;101617.50;;;4.90
24740;BMP280;45234;48.148;17.128;2023-01-24T08:17:06;101620.16;;;4.88
24740;BMP280;45234;48.148;17.128;2023-01-24T08:19:33;101617.03;;;4.96
24740;BMP280;45234;48.148;17.128;2023-01-24T08:22:19;101629.09;;;5.06
24740;BMP280;45234;48.148;17.128;2023-01-24T08:24:46;101627.16;;;5.21
24740;BMP280;45234;48.148;17.128;2023-01-24T08:27:13;101618.16;;;5.38
24740;BMP280;45234;48.148;17.128;2023-01-24T08:29:40;101620.31;;;5.55
24740;BMP280;45234;48.148;17.128;2023-01-24T08:32:07;101623.69;;;5.67
24740;BMP280;45234;48.148;17.128;2023-01-24T08:34:34;101616.75;;;5.79
24740;BMP280;45234;48.148;17.128;2023-01-24T08:37:01;101626.91;;;6.02
24740;BMP280;45234;48.148;17.128;2023-01-24T08:39:27;101626.84;;;6.25
24740;BMP280;45234;48.148;17.128;2023-01-24T08:41:55;101624.84;;;6.40
24740;BMP280;45234;48.148;17.128;2023-01-24T08:44:22;101628.88;;;6.53
24740;BMP280;45234;48.148;17.128;2023-01-24T08:46:49;101634.53;;;6.68
24740;BMP280;45234;48.148;17.128;2023-01-24T08:49:16;101634.75;;;6.76
24740;BMP280;45234;48.148;17.128;2023-01-24T08:51:43;101630.00;;;6.92
24740;BMP280;45234;48.148;17.128;2023-01-24T08:54:10;101640.66;;;7.09
24740;BMP280;45234;48.148;17.128;2023-01-24T08:56:40;101642.22;;;7.21
24740;BMP280;45234;48.148;17.128;2023-01-24T08:59:07;101639.38;;;7.24
24740;BMP280;45234;48.148;17.128;2023-01-24T09:01:34;101646.47;;;7.11
24740;BMP280;45234;48.148;17.128;2023-01-24T09:04:01;101649.84;;;7.02
24740;BMP280;45234;48.148;17.128;2023-01-24T09:06:29;101649.59;;;6.84
24740;BMP280;45234;48.148;17.128;2023-01-24T09:08:56;101658.34;;;6.60
24740;BMP280;45234;48.148;17.128;2023-01-24T09:11:23;101669.75;;;6.47
24740;BMP280;45234;48.148;17.128;2023-01-24T09:13:50;101659.31;;;6.27
24740;BMP280;45234;48.148;17.128;2023-01-24T09:16:17;101660.47;;;6.12
24740;BMP280;45234;48.148;17.128;2023-01-24T09:18:44;101659.81;;;5.99
24740;BMP280;45234;48.148;17.128;2023-01-24T09:21:11;101657.69;;;5.93
24740;BMP280;45234;48.148;17.128;2023-01-24T09:23:38;101652.66;;;5.91
24740;BMP280;45234;48.148;17.128;2023-01-24T09:26:05;101653.25;;;5.84
24740;BMP280;45234;48.148;17.128;2023-01-24T09:28:32;101656.44;;;5.87
24740;BMP280;45234;48.148;17.128;2023-01-24T09:31:01;101657.91;;;5.90
24740;BMP280;45234;48.148;17.128;2023-01-24T09:33:28;101664.28;;;5.86
24740;BMP280;45234;48.148;17.128;2023-01-24T09:35:57;101665.66;;;5.79
24740;BMP280;45234;48.148;17.128;2023-01-24T09:38:27;101659.34;;;5.71
24740;BMP280;45234;48.148;17.128;2023-01-24T09:41:25;101662.81;;;5.59
24740;BMP280;45234;48.148;17.128;2023-01-24T09:44:00;101662.59;;;5.62
24740;BMP280;45234;48.148;17.128;2023-01-24T09:46:37;101664.25;;;5.63
24740;BMP280;45234;48.148;17.128;2023-01-24T09:49:15;101659.69;;;5.67
24740;BMP280;45234;48.148;17.128;2023-01-24T09:51:48;101657.94;;;5.67
24740;BMP280;45234;48.148;17.128;2023-01-24T10:00:16;101646.94;;;5.77
24740;BMP280;45234;48.148;17.128;2023-01-24T10:02:44;101653.47;;;5.92
24740;BMP280;45234;48.148;17.128;2023-01-24T10:05:13;101649.28;;;6.02
24740;BMP280;45234;48.148;17.128;2023-01-24T10:08:09;101651.84;;;5.91
24740;BMP280;45234;48.148;17.128;2023-01-24T10:10:44;101648.09;;;5.95
24740;BMP280;45234;48.148;17.128;2023-01-24T10:18:49;101650.56;;;5.96
24740;BMP280;45234;48.148;17.128;2023-01-24T10:24:16;101643.97;;;6.15
24740;BMP280;45234;48.148;17.128;2023-01-24T10:26:49;101641.50;;;6.24
24740;BMP280;45234;48.148;17.128;2023-01-24T10:29:26;101651.53;;;6.39
24740;BMP280;45234;48.148;17.128;2023-01-24T10:32:11;101640.09;;;6.31
24740;BMP280;45234;48.148;17.128;2023-01-24T10:34:50;101643.75;;;6.50
24740;BMP280;45234;48.148;17.128;2023-01-24T10:37:30;101641.63;;;6.55
24740;BMP280;45234;48.148;17.128;2023-01-24T10:39:59;101643.91;;;6.69
24740;BMP280;45234;48.148;17.128;2023-01-24T10:42:30;101641.53;;;6.77
24740;BMP280;45234;48.148;17.128;2023-01-24T10:45:09;101631.81;;;6.81
24740;BMP280;45234;48.148;17.128;2023-01-24T10:47:50;101630.75;;;6.83
24740;BMP280;45234;48.148;17.128;2023-01-24T10:50:23;101625.59;;;6.83
24740;BMP280;45234;48.148;17.128;2023-01-24T10:52:52;101620.16;;;6.86
24740;BMP280;45234;48.148;17.128;2023-01-24T10:55:32;101615.00;;;6.86
24740;BMP280;45234;48.148;17.128;2023-01-24T11:00:44;101616.56;;;6.98
24740;BMP280;45234;48.148;17.128;2023-01-24T11:03:22;101615.13;;;7.06
24740;BMP280;45234;48.148;17.128;2023-01-24T11:05:52;101605.94;;;7.22
24740;BMP280;45234;48.148;17.128;2023-01-24T11:08:25;101600.19;;;7.30
24740;BMP280;45234;48.148;17.128;2023-01-24T11:10:59;101596.22;;;7.26
24740;BMP280;45234;48.148;17.128;2023-01-24T11:13:40;101595.72;;;7.32
24740;BMP280;45234;48.148;17.128;2023-01-24T11:16:20;101599.41;;;7.39
24740;BMP280;45234;48.148;17.128;2023-01-24T11:21:20;101594.94;;;7.41
24740;BMP280;45234;48.148;17.128;2023-01-24T11:24:16;101586.75;;;7.36
24740;BMP280;45234;48.148;17.128;2023-01-24T11:27:13;101580.22;;;7.32
24740;BMP280;45234;48.148;17.128;2023-01-24T11:29:40;101573.97;;;7.25
24740;BMP280;45234;48.148;17.128;2023-01-24T11:35:21;101566.75;;;7.19
24740;BMP280;45234;48.148;17.128;2023-01-24T11:45:54;101559.84;;;7.29
24740;BMP280;45234;48.148;17.128;2023-01-24T12:05:04;101543.13;;;7.23
24740;BMP280;45234;48.148;17.128;2023-01-24T12:10:42;101525.09;;;7.23
24740;BMP280;45234;48.148;17.128;2023-01-24T12:16:12;101522.94;;;7.38
24740;BMP280;45234;48.148;17.128;2023-01-24T12:21:38;101524.84;;;7.36
24740;BMP280;45234;48.148;17.128;2023-01-24T12:24:18;101531.34;;;7.30
24740;BMP280;45234;48.148;17.128;2023-01-24T12:26:50;101534.59;;;7.23
24740;BMP280;45234;48.148;17.128;2023-01-24T12:29:49;101535.09;;;7.17
24740;BMP280;45234;48.148;17.128;2023-01-24T12:32:58;101543.25;;;7.22
24740;BMP280;45234;48.148;17.128;2023-01-24T12:35:26;101542.31;;;7.23
24740;BMP280;45234;48.148;17.128;2023-01-24T12:38:02;101544.78;;;7.24
24740;BMP280;45234;48.148;17.128;2023-01-24T12:43:22;101532.97;;;6.91
24740;BMP280;45234;48.148;17.128;2023-01-24T12:46:12;101538.81;;;6.93
24740;BMP280;45234;48.148;17.128;2023-01-24T12:48:48;101537.22;;;7.12
24740;BMP280;45234;48.148;17.128;2023-01-24T12:51:26;101539.00;;;7.11
24740;BMP280;45234;48.148;17.128;2023-01-24T12:54:14;101527.22;;;6.88
24740;BMP280;45234;48.148;17.128;2023-01-24T12:59:43;101531.78;;;6.95
24740;BMP280;45234;48.148;17.128;2023-01-24T13:02:20;101525.47;;;6.88
24740;BMP280;45234;48.148;17.128;2023-01-24T13:05:12;101532.59;;;6.75
24740;BMP280;45234;48.148;17.128;2023-01-24T13:13:39;101534.75;;;6.49
24740;BMP280;45234;48.148;17.128;2023-01-24T13:28:07;101535.34;;;6.21
24740;BMP280;45234;48.148;17.128;2023-01-24T13:33:21;101528.06;;;6.26
24740;BMP280;45234;48.148;17.128;2023-01-24T13:35:51;101530.75;;;6.24
24740;BMP280;45234;48.148;17.128;2023-01-24T13:38:29;101539.13;;;6.17
24740;BMP280;45234;48.148;17.128;2023-01-24T13:41:06;101542.00;;;6.23
24740;BMP280;45234;48.148;17.128;2023-01-24T13:44:00;101555.66;;;6.03
24740;BMP280;45234;48.148;17.128;2023-01-24T13:49:32;101555.94;;;5.89
24740;BMP280;45234;48.148;17.128;2023-01-24T13:52:01;101563.38;;;6.03
24740;BMP280;45234;48.148;17.128;2023-01-24T13:54:39;101571.78;;;6.05
24740;BMP280;45234;48.148;17.128;2023-01-24T13:59:41;101563.34;;;6.14
24740;BMP280;45234;48.148;17.128;2023-01-24T14:04:54;101557.88;;;6.08
24740;BMP280;45234;48.148;17.128;2023-01-24T14:07:36;101552.28;;;6.02
24740;BMP280;45234;48.148;17.128;2023-01-24T14:10:05;101556.66;;;5.80
24740;BMP280;45234;48.148;17.128;2023-01-24T14:12:37;101557.41;;;6.02
24740;BMP280;45234;48.148;17.128;2023-01-24T14:20:33;101557.22;;;5.83
24740;BMP280;45234;48.148;17.128;2023-01-24T14:23:03;101559.91;;;5.82
24740;BMP280;45234;48.148;17.128;2023-01-24T14:25:49;101560.59;;;5.84
24740;BMP280;45234;48.148;17.128;2023-01-24T14:28:28;101565.75;;;5.84
24740;BMP280;45234;48.148;17.128;2023-01-24T14:31:00;101571.25;;;5.79
24740;BMP280;45234;48.148;17.128;2023-01-24T14:33:51;101569.16;;;5.73
24740;BMP280;45234;48.148;17.128;2023-01-24T14:36:34;101561.13;;;5.66
24740;BMP280;45234;48.148;17.128;2023-01-24T14:41:39;101571.66;;;5.63
24740;BMP280;45234;48.148;17.128;2023-01-24T14:44:36;101580.50;;;5.59
24740;BMP280;45234;48.148;17.128;2023-01-24T14:49:46;101575.63;;;5.56
24740;BMP280;45234;48.148;17.128;2023-01-24T14:52:21;101575.38;;;5.48
24740;BMP280;45234;48.148;17.128;2023-01-24T14:54:54;101572.81;;;5.48
24740;BMP280;45234;48.148;17.128;2023-01-24T14:57:27;101583.34;;;5.45
24740;BMP280;45234;48.148;17.128;2023-01-24T15:02:38;101588.94;;;5.39
24740;BMP280;45234;48.148;17.128;2023-01-24T15:08:00;101582.16;;;5.16
24740;BMP280;45234;48.148;17.128;2023-01-24T15:10:37;101588.81;;;5.29
24740;BMP280;45234;48.148;17.128;2023-01-24T15:16:20;101592.00;;;5.33
24740;BMP280;45234;48.148;17.128;2023-01-24T15:18:52;101589.41;;;5.33
24740;BMP280;45234;48.148;17.128;2023-01-24T15:21:39;101579.03;;;5.23
24740;BMP280;45234;48.148;17.128;2023-01-24T15:24:30;101569.78;;;5.21
24740;BMP280;45234;48.148;17.128;2023-01-24T15:26:59;101575.41;;;5.26
24740;BMP280;45234;48.148;17.128;2023-01-24T15:32:28;101575.72;;;5.10
24740;BMP280;45234;48.148;17.128;2023-01-24T15:40:53;101581.31;;;5.04
24740;BMP280;45234;48.148;17.128;2023-01-24T15:54:34;101593.38;;;4.68
24740;BMP280;45234;48.148;17.128;2023-01-24T15:57:15;101597.19;;;4.63
24740;BMP280;45234;48.148;17.128;2023-01-24T15:59:46;101596.13;;;4.65
24740;BMP280;45234;48.148;17.128;2023-01-24T16:02:15;101589.41;;;4.75
24740;BMP280;45234;48.148;17.128;2023-01-24T16:04:42;101598.72;;;4.65
24740;BMP280;45234;48.148;17.128;2023-01-24T16:07:11;101603.03;;;4.65
24740;BMP280;45234;48.148;17.128;2023-01-24T16:09:38;101612.59;;;4.63
24740;BMP280;45234;48.148;17.128;2023-01-24T16:12:08;101607.56;;;4.61
24740;BMP280;45234;48.148;17.128;2023-01-24T16:14:36;101608.38;;;4.62
24740;BMP280;45234;48.148;17.128;2023-01-24T16:17:08;101606.75;;;4.61
24740;BMP280;45234;48.148;17.128;2023-01-24T16:19:36;101611.06;;;4.60
24740;BMP280;45234;48.148;17.128;2023-01-24T16:22:02;101612.94;;;4.58
24740;BMP280;45234;48.148;17.128;2023-01-24T16:24:29;101609.66;;;4.56
24740;BMP280;45234;48.148;17.128;2023-01-24T16:26:56;101616.53;;;4.56
24740;BMP280;45234;48.148;17.128;2023-01-24T16:29:29;101610.69;;;4.54
24740;BMP280;45234;48.148;17.128;2023-01-24T16:36:25;101612.97;;;4.45
24740;BMP280;45234;48.148;17.128;2023-01-24T16:39:33;101616.81;;;4.40
24740;BMP280;45234;48.148;17.128;2023-01-24T16:42:18;101619.69;;;4.35
24740;BMP280;45234;48.148;17.128;2023-01-24T16:44:58;101615.41;;;4.36
24740;BMP280;45234;48.148;17.128;2023-01-24T16:47:55;101615.06;;;4.40
24740;BMP280;45234;48.148;17.128;2023-01-24T16:50:32;101624.13;;;4.33
24740;BMP280;45234;48.148;17.128;2023-01-24T16:53:02;101635.31;;;4.32